createdAt,value
2023-03-26T00:03:08.886Z,2.94
2023-03-26T00:07:08.821Z,2.90
2023-03-26T00:11:08.853Z,2.90
2023-03-26T00:15:08.963Z,2.90
2023-03-26T00:19:08.998Z,2.97
2023-03-26T00:23:08.989Z,2.86
2023-03-26T00:27:08.985Z,2.90
2023-03-26T00:31:09.035Z,2.85
2023-03-26T00:35:09.114Z,2.88
2023-03-26T00:39:09.264Z,2.88
2023-03-26T00:43:09.177Z,2.91
2023-03-26T00:47:09.202Z,2.85
2023-03-26T00:51:09.248Z,2.83
2023-03-26T00:55:09.218Z,2.84
2023-03-26T00:59:09.228Z,2.84
2023-03-26T01:03:09.290Z,2.82
2023-03-26T01:07:09.184Z,2.82
2023-03-26T01:11:09.173Z,2.74
2023-03-26T01:15:09.238Z,2.79
2023-03-26T01:19:09.268Z,2.79
2023-03-26T01:23:09.245Z,2.74
2023-03-26T01:27:09.228Z,2.73
2023-03-26T01:31:09.255Z,2.69
2023-03-26T01:35:09.273Z,2.72
2023-03-26T01:39:09.366Z,2.66
2023-03-26T01:43:09.430Z,2.70
2023-03-26T01:47:09.423Z,2.68
2023-03-26T01:51:09.493Z,2.71
2023-03-26T01:55:09.566Z,2.69
2023-03-26T01:59:09.550Z,2.64
2023-03-26T02:03:09.654Z,2.62
2023-03-26T02:07:09.533Z,2.68
2023-03-26T02:11:09.886Z,2.65
2023-03-26T02:15:09.547Z,2.63
2023-03-26T02:19:09.564Z,2.63
2023-03-26T02:23:09.562Z,2.59
2023-03-26T02:27:09.586Z,2.57
2023-03-26T02:31:09.680Z,2.57
2023-03-26T02:35:09.670Z,2.51
2023-03-26T16:55:22.878Z,2.14
2023-03-26T16:59:23.257Z,2.16
2023-03-26T17:03:23.350Z,2.11
2023-03-26T17:07:23.527Z,2.11
2023-03-26T17:11:23.441Z,2.15
2023-03-26T17:15:23.469Z,2.12
2023-03-26T22:47:24.613Z,2.10
